Time;durP1;ratioP1;P1;durP2;ratioP2;P2;SDS_P1;SDS_P2;PMS_P1;PMS_P2;Temp;Humidity;BMP_temperature;BMP_pressure;BME280_temperature;BME280_humidity;BME280_pressure;Samples;Min_cycle;Max_cycle;Signal;HPM_P1;HPM_P2
2023/04/07 07:01:29;;;;;;;2.87;2.77;;;11.30;99.90;14.40;101431.00;;;;6340728;22;20223;-69
2023/04/07 07:03:59;;;;;;;1.63;1.63;;;11.30;99.90;13.80;101431.00;;;;6340577;22;20143;-69
2023/04/07 07:06:30;;;;;;;1.60;1.60;;;11.30;99.90;13.90;101437.00;;;;6340923;22;20163;-68
2023/04/07 07:09:04;;;;;;;1.60;1.60;;;11.30;99.90;13.50;101431.00;;;;6313563;22;20139;-68
2023/04/07 07:11:33;;;;;;;1.90;1.90;;;11.00;99.90;13.90;101453.00;;;;6312880;22;20140;-69
2023/04/07 07:14:02;;;;;;;1.60;1.60;;;11.10;99.90;13.90;101449.00;;;;6313014;22;20147;-69
2023/04/07 07:16:34;;;;;;;1.50;1.50;;;11.20;99.90;13.90;101456.00;;;;6313384;22;20144;-68
2023/04/07 07:18:59;;;;;;;1.80;1.80;;;11.20;99.90;13.70;101457.00;;;;6340424;22;20143;-69
2023/04/07 07:21:28;;;;;;;1.50;1.50;;;11.10;99.90;14.20;101461.00;;;;6340372;22;20513;-68
2023/04/07 07:23:59;;;;;;;2.40;2.30;;;11.10;99.90;14.30;101462.00;;;;6313076;22;20140;-69
2023/04/07 07:26:26;;;;;;;1.80;1.80;;;11.30;99.90;14.40;101460.00;;;;6313351;22;20135;-68
2023/04/07 07:28:52;;;;;;;1.70;1.70;;;11.40;99.90;14.70;101468.00;;;;6312477;22;20205;-69
2023/04/07 07:31:18;;;;;;;1.87;1.87;;;11.60;99.90;14.70;101470.00;;;;6340003;22;20160;-68
2023/04/07 07:33:45;;;;;;;1.93;1.93;;;11.60;99.90;15.00;101479.00;;;;6286666;22;20489;-68
2023/04/07 07:36:11;;;;;;;1.70;1.70;;;11.90;99.90;15.20;101494.00;;;;6287341;22;20166;-68
2023/04/07 07:38:42;;;;;;;1.90;1.90;;;12.10;99.90;15.00;101462.00;;;;6340452;22;20185;-68
2023/04/07 07:41:08;;;;;;;1.80;1.80;;;12.10;99.90;15.10;101502.00;;;;6313271;22;20138;-68
2023/04/07 07:43:35;;;;;;;1.80;1.80;;;12.20;99.90;15.00;101481.00;;;;6312425;22;20165;-68
2023/04/07 07:46:04;;;;;;;1.90;1.90;;;12.10;99.90;15.00;101501.00;;;;6339872;22;20167;-68
2023/04/07 07:48:36;;;;;;;1.90;1.90;;;12.10;99.90;15.30;101495.00;;;;6339606;22;20204;-66
2023/04/07 07:51:08;;;;;;;1.90;1.90;;;12.10;99.90;15.20;101509.00;;;;6340276;22;20236;-70
2023/04/07 07:53:34;;;;;;;2.20;2.20;;;12.20;99.90;15.50;101520.00;;;;6340337;22;20157;-70
2023/04/07 07:56:00;;;;;;;2.30;2.30;;;12.40;99.90;15.70;101514.00;;;;6312463;22;20144;-70
2023/04/07 07:58:28;;;;;;;2.93;2.83;;;12.40;99.90;15.80;101523.00;;;;6340286;22;20144;-70
2023/04/07 08:00:57;;;;;;;2.13;2.13;;;12.60;99.90;15.90;101492.00;;;;6340171;22;20207;-70
2023/04/07 08:03:26;;;;;;;2.07;2.07;;;12.70;99.90;15.80;101526.00;;;;6312257;22;20183;-65
2023/04/07 08:05:52;;;;;;;2.10;2.10;;;12.70;99.90;15.60;101504.00;;;;6312233;22;20144;-69
2023/04/07 08:08:18;;;;;;;1.97;1.97;;;12.60;99.90;16.00;101534.00;;;;6312895;22;20147;-69
2023/04/07 08:10:46;;;;;;;2.00;2.00;;;12.70;99.90;15.90;101517.00;;;;6339968;22;20173;-69
2023/04/07 08:13:12;;;;;;;2.30;2.30;;;12.70;99.90;16.10;101534.00;;;;6339887;22;20150;-69
2023/04/07 08:15:39;;;;;;;2.20;2.17;;;12.90;99.90;16.10;101506.00;;;;6338609;22;20487;-64
2023/04/07 08:18:08;;;;;;;3.07;2.87;;;13.10;99.90;15.80;101527.00;;;;6312527;22;20146;-68
2023/04/07 08:20:35;;;;;;;1.83;1.83;;;13.00;99.90;15.60;101549.00;;;;6312507;22;20202;-68
2023/04/07 08:23:04;;;;;;;1.90;1.90;;;13.00;99.90;16.10;101546.00;;;;6312531;22;20222;-68
2023/04/07 08:25:33;;;;;;;1.60;1.60;;;13.10;99.90;16.80;101536.00;;;;6312413;22;20139;-68
2023/04/07 08:27:59;;;;;;;3.07;2.97;;;13.50;99.90;16.80;101560.00;;;;6312671;22;20140;-68
2023/04/07 08:30:30;;;;;;;2.00;2.00;;;13.80;99.90;17.00;101558.00;;;;6286253;22;20168;-68
2023/04/07 08:32:59;;;;;;;1.60;1.60;;;14.00;99.90;16.80;101546.00;;;;6286516;22;20159;-68
2023/04/07 08:35:25;;;;;;;1.30;1.30;;;14.00;99.90;16.00;101551.00;;;;6339511;22;20141;-68
2023/04/07 08:37:53;;;;;;;1.20;1.20;;;13.70;99.90;16.90;101558.00;;;;6311988;22;20160;-66
2023/04/07 08:40:22;;;;;;;1.30;1.30;;;13.70;99.90;17.40;101571.00;;;;6339881;22;20146;-66
2023/04/07 08:42:49;;;;;;;1.20;1.20;;;14.20;99.90;17.40;101545.00;;;;6312106;22;20195;-69
2023/04/07 08:45:17;;;;;;;1.30;1.30;;;14.40;99.90;17.30;101572.00;;;;6286357;22;20488;-64
2023/04/07 08:47:46;;;;;;;1.00;1.00;;;14.40;99.90;17.40;101585.00;;;;6312555;22;20580;-68
2023/04/07 08:50:17;;;;;;;0.70;0.70;;;14.50;99.90;17.10;101590.00;;;;6312095;22;20133;-62
2023/04/07 08:52:53;;;;;;;0.60;0.60;;;14.50;99.90;16.90;101574.00;;;;6286645;22;20159;-69
2023/04/07 08:55:19;;;;;;;0.50;0.50;;;14.20;99.90;16.00;101568.00;;;;6311951;22;20465;-70
2023/04/07 08:57:46;;;;;;;0.50;0.50;;;13.90;99.90;16.70;101542.00;;;;6312331;22;20215;-68
2023/04/07 09:00:13;;;;;;;0.40;0.40;;;13.70;99.90;17.30;101588.00;;;;6285616;22;20182;-65
2023/04/07 09:02:46;;;;;;;0.67;0.67;;;14.10;99.90;17.70;101593.00;;;;6312076;22;20652;-66
2023/04/07 09:05:13;;;;;;;1.33;0.33;;;14.60;99.90;15.50;101595.00;;;;6312919;22;20135;-65
2023/04/07 09:07:42;;;;;;;2.30;2.20;;;14.10;99.90;16.60;101589.00;;;;6285473;22;20587;-65
2023/04/07 09:10:08;;;;;;;0.50;0.50;;;13.90;99.90;17.00;101582.00;;;;6312079;22;20158;-65
2023/04/07 09:12:35;;;;;;;0.40;0.40;;;13.90;99.90;15.70;101556.00;;;;6311750;22;20149;-65
2023/04/07 09:15:03;;;;;;;0.40;0.40;;;13.50;99.90;15.60;101569.00;;;;6339796;22;20186;-65
2023/04/07 09:17:29;;;;;;;0.40;0.40;;;13.10;99.90;14.80;101569.00;;;;6311439;22;20578;-65
2023/04/07 09:19:57;;;;;;;0.40;0.40;;;12.60;99.90;14.50;101579.00;;;;6311917;22;20617;-65
2023/04/07 09:22:42;;;;;;;0.67;0.67;;;12.40;99.90;14.20;101585.00;;;;6311304;22;20179;-65
2023/04/07 09:25:22;;;;;;;0.80;0.80;;;12.20;99.90;14.30;101591.00;;;;6339664;22;20575;-66
2023/04/07 09:28:02;;;;;;;0.47;0.47;;;12.00;99.90;14.70;101590.00;;;;6311687;22;20138;-66
2023/04/07 09:30:31;;;;;;;0.80;0.80;;;12.10;99.90;14.60;101583.00;;;;6285592;22;20283;-66
2023/04/07 09:33:01;;;;;;;0.40;0.40;;;12.10;99.90;14.90;101593.00;;;;6286072;22;20189;-66
2023/04/07 09:35:28;;;;;;;0.30;0.30;;;12.30;99.90;14.40;101585.00;;;;6312124;22;20138;-66
2023/04/07 09:38:05;;;;;;;0.60;0.60;;;12.20;99.90;14.50;101588.00;;;;6311867;22;20589;-68
2023/04/07 09:40:31;;;;;;;0.50;0.50;;;12.10;99.90;14.50;101586.00;;;;6339200;22;20659;-68
2023/04/07 09:42:58;;;;;;;0.47;0.47;;;12.10;99.90;14.70;101587.00;;;;6311162;22;20254;-68
2023/04/07 09:45:39;;;;;;;0.40;0.40;;;12.30;99.90;15.00;101593.00;;;;6338780;22;20197;-68
2023/04/07 09:48:39;;;;;;;0.33;0.33;;;12.40;99.90;15.40;101567.00;;;;6313639;22;20145;-68
2023/04/07 09:51:16;;;;;;;1.57;0.83;;;12.60;99.90;15.20;101600.00;;;;6329167;22;20495;-68
2023/04/07 09:53:51;;;;;;;0.30;0.30;;;12.80;99.90;15.20;101605.00;;;;6311318;22;20278;-68
2023/04/07 09:56:21;;;;;;;0.90;0.87;;;12.80;99.90;13.90;101573.00;;;;6339119;22;20148;-68
2023/04/07 09:58:50;;;;;;;0.30;0.30;;;12.50;99.90;14.70;101615.00;;;;6311490;22;20150;-68
2023/04/07 10:01:20;;;;;;;1.53;1.43;;;12.40;99.90;14.30;101613.00;;;;6311819;22;20168;-68
2023/04/07 10:03:55;;;;;;;4.10;0.63;;;12.20;99.90;14.60;101604.00;;;;6338531;22;20166;-68
2023/04/07 10:06:26;;;;;;;1.47;0.87;;;12.20;99.90;14.60;101605.00;;;;6338834;22;20151;-68
2023/04/07 10:08:55;;;;;;;1.43;1.33;;;12.10;99.90;14.70;101615.00;;;;6311943;22;20136;-68
2023/04/07 10:11:21;;;;;;;0.70;0.70;;;12.30;99.90;15.10;101621.00;;;;6285870;22;20183;-67
2023/04/07 10:13:50;;;;;;;0.30;0.30;;;12.60;99.90;15.70;101602.00;;;;6311161;22;20573;-66
2023/04/07 10:16:16;;;;;;;0.30;0.30;;;12.70;99.90;16.50;101617.00;;;;6311400;22;20148;-66
2023/04/07 10:19:03;;;;;;;0.57;0.57;;;13.20;99.90;16.70;101604.00;;;;6311489;22;20151;-66
2023/04/07 10:33:52;;;;;;;0.83;0.83;;;12.70;99.90;14.80;101581.00;;;;5070118;28;20553;-68
2023/04/07 10:36:20;;;;;;;0.20;0.20;;;12.80;99.90;16.00;101621.00;;;;5049041;28;20189;-65
2023/04/07 10:39:08;;;;;;;0.20;0.20;;;13.10;99.90;15.60;101632.00;;;;5050105;28;20189;-65
2023/04/07 10:41:40;;;;;;;1.70;1.60;;;13.30;99.90;16.00;101634.00;;;;5050062;28;20663;-67
2023/04/07 10:44:45;;;;;;;2.37;0.43;;;13.40;99.90;15.30;101595.00;;;;5050241;28;20176;-67
2023/04/07 10:47:13;;;;;;;0.20;0.20;;;12.90;99.90;15.60;101617.00;;;;5048198;28;20176;-67
2023/04/07 10:50:21;;;;;;;0.20;0.20;;;12.90;99.90;15.40;101598.00;;;;5050390;28;20615;-65
2023/04/07 10:53:11;;;;;;;3.93;0.53;;;13.20;99.90;15.20;101635.00;;;;5048887;28;20215;-67
2023/04/07 10:55:53;;;;;;;0.30;0.30;;;13.10;99.90;15.00;101630.00;;;;5043250;28;20204;-67
2023/04/07 10:58:28;;;;;;;0.83;0.63;;;13.00;99.90;15.20;101622.00;;;;5043020;28;20218;-67
2023/04/07 11:01:02;;;;;;;0.30;0.30;;;13.00;99.90;15.30;101635.00;;;;5048199;28;20564;-67
2023/04/07 11:03:32;;;;;;;0.10;0.10;;;13.20;99.90;15.10;101624.00;;;;5046649;28;20523;-67
2023/04/07 11:06:12;;;;;;;0.10;0.10;;;12.90;99.90;15.20;101634.00;;;;5048534;28;20281;-67
2023/04/07 11:08:46;;;;;;;1.67;1.60;;;13.10;99.90;15.50;101637.00;;;;5070993;28;20206;-67
2023/04/07 11:11:14;;;;;;;0.70;0.70;;;13.10;99.90;14.60;101623.00;;;;5030973;28;20711;-67
2023/04/07 11:13:50;;;;;;;0.20;0.20;;;12.80;99.90;15.10;101630.00;;;;5047226;28;20205;-67
2023/04/07 11:16:18;;;;;;;0.10;0.10;;;12.70;99.90;15.00;101592.00;;;;5049501;28;20192;-67
2023/04/07 11:18:46;;;;;;;0.20;0.20;;;12.70;99.90;15.70;101638.00;;;;5048363;28;20839;-67
2023/04/07 11:21:21;;;;;;;0.10;0.10;;;12.90;99.90;14.70;101628.00;;;;5048585;28;20186;-67
2023/04/07 11:23:48;;;;;;;0.20;0.20;;;12.80;99.90;16.30;101636.00;;;;5036282;28;20174;-65
2023/04/07 11:26:15;;;;;;;0.87;0.87;;;13.20;99.90;16.30;101639.00;;;;5049481;28;20179;-65
2023/04/07 11:28:48;;;;;;;0.93;0.93;;;13.50;99.90;16.80;101617.00;;;;5049131;28;20266;-65
2023/04/07 11:31:29;;;;;;;0.37;0.37;;;14.00;99.90;16.70;101652.00;;;;5049154;28;20190;-65
2023/04/07 11:34:03;;;;;;;0.10;0.10;;;14.20;99.90;15.70;101639.00;;;;5049529;28;20530;-65
2023/04/07 11:36:39;;;;;;;0.20;0.20;;;13.90;99.90;15.90;101644.00;;;;5037300;28;20184;-65
2023/04/07 11:39:22;;;;;;;0.20;0.20;;;13.60;99.90;14.50;101631.00;;;;5047810;28;20598;-67
2023/04/07 11:41:56;;;;;;;0.20;0.20;;;13.10;99.90;15.00;101642.00;;;;5047928;28;20682;-67
2023/04/07 11:44:27;;;;;;;0.10;0.10;;;12.70;99.90;14.70;101638.00;;;;5036656;28;20183;-67
2023/04/07 11:47:02;;;;;;;0.20;0.20;;;12.40;99.90;14.70;101637.00;;;;5034851;28;20189;-67
2023/04/07 11:49:33;;;;;;;0.20;0.20;;;12.30;99.90;15.40;101656.00;;;;5035895;28;20257;-67
2023/04/07 11:52:06;;;;;;;0.20;0.20;;;12.60;99.90;15.20;101658.00;;;;5034132;28;20207;-67
2023/04/07 11:54:50;;;;;;;0.20;0.20;;;12.50;99.90;15.50;101628.00;;;;5034480;28;20185;-67
2023/04/07 11:57:31;;;;;;;0.70;0.70;;;12.70;99.90;15.50;101675.00;;;;5035842;28;20192;-67
2023/04/07 12:00:08;;;;;;;0.20;0.20;;;12.80;99.90;15.50;101679.00;;;;5034498;28;20187;-67
2023/04/07 12:02:37;;;;;;;2.70;1.17;;;12.80;99.90;14.30;101660.00;;;;5017861;28;20249;-67
2023/04/07 12:05:05;;;;;;;0.10;0.10;;;12.40;99.90;14.00;101671.00;;;;5031073;28;20612;-67
2023/04/07 12:07:35;;;;;;;0.13;0.13;;;12.10;99.90;13.80;101674.00;;;;5062847;28;20207;-67
2023/04/07 12:10:19;;;;;;;1.47;0.40;;;11.90;99.90;14.10;101673.00;;;;5030623;28;20191;-67
2023/04/07 12:13:25;;;;;;;0.40;0.40;;;11.70;99.90;13.70;101681.00;;;;5030387;28;20209;-67
2023/04/07 12:16:12;;;;;;;0.40;0.40;;;11.70;99.90;14.20;101683.00;;;;5060887;28;20171;-67
2023/04/07 12:18:40;;;;;;;0.20;0.20;;;11.80;99.90;14.50;101694.00;;;;5033346;28;20210;-67
2023/04/07 12:21:14;;;;;;;0.20;0.20;;;11.90;99.90;14.60;101677.00;;;;5034062;28;20204;-67
2023/04/07 12:23:40;;;;;;;0.20;0.20;;;12.00;99.90;14.90;101684.00;;;;5033732;28;20611;-66
2023/04/07 12:26:07;;;;;;;0.20;0.20;;;12.20;99.90;15.50;101693.00;;;;5033984;28;20525;-66
2023/04/07 12:28:33;;;;;;;1.43;0.40;;;12.50;99.90;15.00;101688.00;;;;5033857;28;20645;-66
2023/04/07 12:30:59;;;;;;;0.23;0.23;;;12.70;99.90;14.60;101685.00;;;;5033234;28;20667;-66
2023/04/07 12:33:30;;;;;;;0.20;0.20;;;12.50;99.90;15.70;101691.00;;;;5035072;28;20185;-67
2023/04/07 12:36:01;;;;;;;0.20;0.20;;;12.70;99.90;15.70;101703.00;;;;5025301;28;20178;-67
2023/04/07 12:38:36;;;;;;;0.87;0.83;;;13.00;99.90;15.60;101687.00;;;;5033813;28;20186;-67
2023/04/07 12:41:08;;;;;;;0.10;0.10;;;13.10;99.90;15.60;101696.00;;;;5025318;28;20196;-67
2023/04/07 12:43:37;;;;;;;0.40;0.40;;;13.40;99.90;15.80;101693.00;;;;5033607;28;20201;-66
2023/04/07 12:46:26;;;;;;;0.20;0.20;;;13.40;99.90;15.10;101694.00;;;;5033729;28;20211;-67
2023/04/07 12:49:27;;;;;;;0.10;0.10;;;13.10;99.90;15.60;101701.00;;;;5039770;28;20235;-69
2023/04/07 12:52:00;;;;;;;0.20;0.20;;;12.90;99.90;15.30;101701.00;;;;5032929;28;20690;-69
2023/04/07 12:54:38;;;;;;;0.30;0.30;;;12.80;99.90;15.40;101699.00;;;;5028826;28;20234;-69
2023/04/07 12:57:23;;;;;;;0.20;0.20;;;12.70;99.90;15.80;101701.00;;;;5033009;28;20189;-69
2023/04/07 13:00:10;;;;;;;0.60;0.60;;;12.80;99.90;15.20;101722.00;;;;5033049;28;20264;-68
2023/04/07 13:02:57;;;;;;;0.20;0.20;;;12.80;99.90;14.80;101706.00;;;;5032626;28;20267;-69
2023/04/07 13:05:30;;;;;;;0.20;0.20;;;12.50;99.90;15.20;101691.00;;;;5018274;28;20218;-69
2023/04/07 13:08:16;;;;;;;0.10;0.10;;;12.40;99.90;14.50;101723.00;;;;5032947;28;20654;-69
2023/04/07 13:10:45;;;;;;;0.53;0.50;;;12.40;99.90;15.10;101723.00;;;;5018717;28;20210;-69
2023/04/07 13:13:16;;;;;;;0.20;0.20;;;12.40;99.90;14.80;101688.00;;;;5032888;28;20215;-69
2023/04/07 13:15:42;;;;;;;0.20;0.20;;;12.40;99.90;15.00;101720.00;;;;5033746;28;20193;-69
2023/04/07 13:18:10;;;;;;;0.20;0.20;;;12.50;99.90;15.00;101717.00;;;;5034512;28;20180;-69
2023/04/07 13:20:52;;;;;;;0.20;0.20;;;12.40;99.90;14.80;101714.00;;;;5033847;28;20635;-69
2023/04/07 13:23:28;;;;;;;0.50;0.50;;;12.40;99.90;15.40;101709.00;;;;5016462;28;20187;-69
2023/04/07 13:25:54;;;;;;;3.03;0.80;;;12.50;99.90;14.90;101729.00;;;;5016694;28;20210;-69
2023/04/07 13:28:22;;;;;;;0.10;0.10;;;12.50;99.90;14.70;101735.00;;;;5016768;28;20211;-69
2023/04/07 13:30:48;;;;;;;0.10;0.10;;;12.30;99.90;14.80;101735.00;;;;5013360;28;20178;-69
2023/04/07 13:33:14;;;;;;;0.20;0.20;;;12.30;99.90;14.60;101740.00;;;;5064082;28;20228;-69
2023/04/07 13:35:40;;;;;;;0.20;0.20;;;12.30;99.90;15.20;101742.00;;;;5032336;28;20188;-69
2023/04/07 13:38:13;;;;;;;0.30;0.30;;;12.40;99.90;14.50;101745.00;;;;5032503;28;20204;-69
2023/04/07 13:40:40;;;;;;;0.10;0.10;;;12.40;99.90;15.40;101747.00;;;;5033671;28;20196;-69
2023/04/07 13:43:11;;;;;;;0.20;0.20;;;12.50;99.90;15.50;101723.00;;;;5032375;28;20191;-69
2023/04/07 13:45:37;;;;;;;0.10;0.10;;;12.70;99.90;16.10;101758.00;;;;5033596;28;20190;-68
2023/04/07 13:48:03;;;;;;;0.20;0.20;;;13.00;99.90;16.10;101764.00;;;;5032374;28;20185;-67
2023/04/07 13:50:35;;;;;;;0.20;0.20;;;13.10;99.90;15.80;101780.00;;;;5032292;28;20544;-67
2023/04/07 13:53:01;;;;;;;0.40;0.40;;;13.20;99.90;15.30;101763.00;;;;5032162;28;20266;-67
2023/04/07 13:55:28;;;;;;;0.10;0.10;;;13.00;99.90;15.30;101762.00;;;;5032429;28;20639;-69
2023/04/07 13:57:53;;;;;;;0.10;0.10;;;12.80;99.90;14.70;101755.00;;;;5015714;28;20611;-69
2023/04/07 14:00:19;;;;;;;0.17;0.17;;;12.60;99.90;15.60;101747.00;;;;5032373;28;20270;-69
2023/04/07 14:02:49;;;;;;;0.20;0.20;;;12.70;99.90;14.90;101766.00;;;;5033522;28;20243;-69
2023/04/07 14:05:15;;;;;;;0.20;0.20;;;12.50;99.90;14.90;101743.00;;;;5033125;28;20187;-69
2023/04/07 14:07:41;;;;;;;0.10;0.10;;;12.30;99.90;14.90;101744.00;;;;5032577;28;20593;-69
2023/04/07 14:10:07;;;;;;;0.10;0.10;;;12.30;99.90;14.70;101766.00;;;;5031969;28;20188;-69
2023/04/07 14:12:35;;;;;;;0.40;0.40;;;12.30;99.90;14.30;101757.00;;;;5032280;28;20269;-69
2023/04/07 14:15:03;;;;;;;0.10;0.10;;;12.10;99.90;15.20;101760.00;;;;5026802;28;20193;-69
2023/04/07 14:17:39;;;;;;;0.50;0.50;;;12.20;99.90;15.30;101762.00;;;;5031778;28;20279;-69
2023/04/07 14:20:14;;;;;;;0.10;0.10;;;12.40;99.90;14.90;101772.00;;;;5028859;28;20276;-69
2023/04/07 14:22:57;;;;;;;0.10;0.10;;;12.40;99.90;15.80;101752.00;;;;5027237;28;20636;-69
2023/04/07 14:25:23;;;;;;;1.07;1.07;;;12.70;99.90;15.70;101777.00;;;;5027365;28;20189;-69
2023/04/07 14:27:53;;;;;;;0.10;0.10;;;12.90;99.90;15.60;101761.00;;;;5031949;28;20197;-69
2023/04/07 14:30:19;;;;;;;0.77;0.77;;;12.90;99.90;15.20;101791.00;;;;5031747;28;20823;-67
2023/04/07 14:32:53;;;;;;;0.70;0.50;;;12.80;99.90;16.00;101793.00;;;;5031620;28;20215;-67
2023/04/07 14:35:19;;;;;;;2.90;1.23;;;13.00;99.90;15.50;101795.00;;;;5033148;28;20537;-67
2023/04/07 14:37:51;;;;;;;0.20;0.20;;;12.90;99.90;16.40;101778.00;;;;5032766;28;20190;-61
2023/04/07 14:40:20;;;;;;;0.10;0.10;;;13.10;99.90;15.90;101805.00;;;;5032419;28;20197;-61
2023/04/07 14:42:46;;;;;;;1.90;0.83;;;13.10;99.90;14.80;101821.00;;;;5028732;28;20589;-61
2023/04/07 14:45:11;;;;;;;0.40;0.40;;;12.80;99.90;16.00;101805.00;;;;5032665;28;20190;-61
2023/04/07 14:47:37;;;;;;;0.20;0.20;;;12.90;99.90;15.90;101807.00;;;;5032830;28;20182;-62
2023/04/07 14:50:07;;;;;;;1.30;0.37;;;13.00;99.90;15.80;101805.00;;;;5032669;28;20525;-62
2023/04/07 14:52:33;;;;;;;6.33;0.70;;;12.90;99.90;15.40;101788.00;;;;5032909;28;20203;-62
2023/04/07 14:55:01;;;;;;;0.20;0.20;;;12.70;99.90;15.70;101787.00;;;;5031243;28;20243;-62
2023/04/07 14:57:27;;;;;;;0.10;0.10;;;12.80;99.90;15.40;101804.00;;;;5032919;28;20236;-62
2023/04/07 14:59:53;;;;;;;0.30;0.30;;;12.80;99.90;15.30;101793.00;;;;5032479;28;20210;-62
2023/04/07 15:02:20;;;;;;;0.10;0.10;;;12.50;99.90;15.20;101782.00;;;;5032783;28;20604;-61
2023/04/07 15:04:46;;;;;;;0.30;0.30;;;12.40;99.90;14.70;101806.00;;;;5032750;28;20253;-64
2023/04/07 15:07:12;;;;;;;0.10;0.10;;;12.30;99.90;14.70;101793.00;;;;5032745;28;20187;-64
2023/04/07 15:09:38;;;;;;;0.10;0.10;;;12.10;99.90;15.20;101795.00;;;;5032592;28;20179;-62
2023/04/07 15:12:06;;;;;;;0.10;0.10;;;12.20;99.90;15.10;101796.00;;;;5032629;28;20203;-62
2023/04/07 15:14:32;;;;;;;0.10;0.10;;;12.20;99.90;14.60;101748.00;;;;5032580;28;20188;-62
2023/04/07 15:17:01;;;;;;;0.10;0.10;;;12.20;99.90;15.20;101792.00;;;;5032050;28;20190;-61
2023/04/07 15:19:26;;;;;;;0.13;0.13;;;12.30;99.90;14.80;101780.00;;;;5035017;28;20547;-62
2023/04/07 15:21:52;;;;;;;0.40;0.40;;;12.30;99.90;14.50;101798.00;;;;5035119;28;20190;-62
2023/04/07 15:24:20;;;;;;;0.30;0.30;;;12.10;99.90;14.60;101795.00;;;;5036560;28;20241;-62
2023/04/07 15:26:51;;;;;;;0.60;0.60;;;12.00;99.90;14.40;101801.00;;;;5036192;28;20216;-61
2023/04/07 15:29:20;;;;;;;0.83;0.67;;;12.00;99.90;13.90;101807.00;;;;5035271;28;20543;-62
2023/04/07 15:31:48;;;;;;;0.20;0.20;;;11.90;99.90;14.40;101787.00;;;;5035632;28;20224;-64
2023/04/07 15:34:20;;;;;;;0.20;0.20;;;11.80;99.90;14.70;101814.00;;;;5036160;28;20194;-62
2023/04/07 15:36:46;;;;;;;6.80;4.33;;;12.00;99.90;14.90;101812.00;;;;5036066;28;20188;-62
2023/04/07 15:39:12;;;;;;;0.10;0.10;;;12.00;99.90;14.90;101803.00;;;;5034740;28;20187;-62
2023/04/07 15:41:37;;;;;;;0.10;0.10;;;12.20;99.90;14.50;101817.00;;;;5035562;28;20225;-61
2023/04/07 15:44:03;;;;;;;0.17;0.17;;;12.10;99.90;14.50;101809.00;;;;5034839;28;20199;-61
2023/04/07 15:46:32;;;;;;;0.60;0.60;;;12.00;99.90;14.40;101814.00;;;;5035510;28;20235;-62
2023/04/07 15:49:01;;;;;;;0.27;0.27;;;12.00;99.90;14.00;101800.00;;;;5035843;28;20215;-63
2023/04/07 15:51:31;;;;;;;0.20;0.20;;;11.80;99.90;14.70;101806.00;;;;5035574;28;20292;-63
2023/04/07 15:54:00;;;;;;;0.20;0.20;;;11.90;99.90;14.70;101808.00;;;;5034258;28;20205;-64
2023/04/07 15:56:34;;;;;;;0.23;0.23;;;12.00;99.90;14.80;101815.00;;;;5034533;28;20182;-62
2023/04/07 15:59:00;;;;;;;0.43;0.43;;;12.00;99.90;15.00;101820.00;;;;5035513;28;20241;-62
2023/04/07 16:01:31;;;;;;;0.10;0.10;;;12.10;99.90;14.70;101827.00;;;;5034399;28;20584;-62
2023/04/07 16:04:00;;;;;;;0.30;0.30;;;12.20;99.90;14.60;101824.00;;;;5032953;28;20286;-62
2023/04/07 16:06:38;;;;;;;0.10;0.10;;;12.00;99.90;14.50;101816.00;;;;5017443;28;20563;-63
2023/04/07 16:09:11;;;;;;;0.87;0.37;;;11.80;99.90;14.60;101816.00;;;;5022580;28;20218;-61
2023/04/07 16:12:02;;;;;;;0.10;0.10;;;11.90;99.90;14.70;101814.00;;;;5034113;28;20561;-64
2023/04/07 16:15:00;;;;;;;0.20;0.20;;;11.90;99.90;14.90;101820.00;;;;5050815;28;20205;-65
2023/04/07 16:17:27;;;;;;;0.20;0.20;;;12.00;99.90;14.90;101823.00;;;;5028304;28;20253;-63
2023/04/07 16:20:13;;;;;;;0.10;0.10;;;12.00;99.90;15.00;101832.00;;;;5037982;28;20207;-63
2023/04/07 16:22:59;;;;;;;0.10;0.10;;;12.00;99.90;14.70;101823.00;;;;5036825;28;20194;-63
2023/04/07 16:26:08;;;;;;;0.13;0.13;;;12.00;99.90;15.00;101830.00;;;;5036829;28;20549;-63
2023/04/07 16:28:59;;;;;;;0.23;0.23;;;12.00;99.90;15.20;101834.00;;;;5039379;28;20211;-64
2023/04/07 16:32:07;;;;;;;0.10;0.10;;;12.20;99.90;15.10;101853.00;;;;5035184;28;20218;-63
2023/04/07 16:34:36;;;;;;;0.20;0.20;;;12.20;99.90;14.90;101857.00;;;;5036619;28;20193;-63
2023/04/07 16:37:13;;;;;;;0.10;0.10;;;12.20;99.90;14.90;101859.00;;;;5033740;28;20626;-63
2023/04/07 16:40:08;;;;;;;0.10;0.10;;;12.10;99.90;15.20;101870.00;;;;5034640;28;20229;-63
2023/04/07 16:42:41;;;;;;;0.20;0.20;;;12.10;99.90;15.10;101862.00;;;;5032337;28;20278;-63
2023/04/07 16:45:18;;;;;;;0.20;0.20;;;12.00;99.90;15.60;101874.00;;;;5049765;28;20219;-63
2023/04/07 16:48:07;;;;;;;0.10;0.10;;;12.20;99.90;15.50;101886.00;;;;5034851;28;20648;-63
2023/04/07 16:50:43;;;;;;;0.20;0.20;;;12.30;99.90;15.30;101888.00;;;;5016888;28;20191;-64
2023/04/07 16:53:38;;;;;;;0.20;0.20;;;12.20;99.90;15.60;101888.00;;;;5039645;28;20205;-64
2023/04/07 16:56:18;;;;;;;0.50;0.50;;;12.20;99.90;15.70;101904.00;;;;5054445;28;20206;-63
2023/04/07 16:58:44;;;;;;;0.20;0.20;;;12.30;99.90;15.70;101901.00;;;;5025819;28;20198;-63
2023/04/07 17:01:18;;;;;;;0.30;0.30;;;12.40;99.90;14.30;101926.00;;;;5033025;28;20179;-62
2023/04/07 17:03:47;;;;;;;0.20;0.20;;;12.20;99.90;14.80;101860.00;;;;5034387;28;20184;-62
2023/04/07 17:06:20;;;;;;;0.10;0.10;;;11.80;99.90;14.60;101883.00;;;;5033549;28;20191;-63
2023/04/07 17:09:06;;;;;;;0.10;0.10;;;11.80;99.90;14.70;101882.00;;;;5032716;28;20210;-63
2023/04/07 17:11:39;;;;;;;0.30;0.30;;;11.80;99.90;14.70;101880.00;;;;5025940;28;20195;-63
2023/04/07 17:14:26;;;;;;;0.20;0.20;;;11.90;99.90;13.50;101877.00;;;;5057623;28;20183;-62
2023/04/07 17:17:04;;;;;;;0.20;0.20;;;11.60;99.90;13.30;101837.00;;;;5033284;28;20589;-62
2023/04/07 17:19:50;;;;;;;0.20;0.20;;;11.20;99.90;14.40;101853.00;;;;5031563;28;20179;-63
2023/04/07 17:22:47;;;;;;;0.10;0.10;;;11.30;99.90;14.10;101855.00;;;;5032800;28;20187;-63
2023/04/07 17:25:21;;;;;;;0.30;0.30;;;11.50;99.90;14.40;101859.00;;;;5033073;28;20199;-63
2023/04/07 17:27:49;;;;;;;0.20;0.20;;;11.50;99.90;14.70;101855.00;;;;5033456;28;20277;-63
2023/04/07 17:30:23;;;;;;;0.13;0.13;;;11.60;99.90;14.60;101870.00;;;;5034364;28;20298;-63
2023/04/07 17:33:10;;;;;;;0.80;0.80;;;11.70;99.90;14.30;101862.00;;;;5033667;28;20569;-63
2023/04/07 17:35:36;;;;;;;0.20;0.20;;;11.60;99.90;14.70;101878.00;;;;5021637;28;20210;-63
2023/04/07 17:38:08;;;;;;;0.20;0.20;;;11.70;99.90;14.20;101871.00;;;;5032433;28;20207;-63
2023/04/07 17:40:57;;;;;;;0.20;0.20;;;11.50;99.90;14.60;101878.00;;;;5032461;28;20560;-63
2023/04/07 17:43:46;;;;;;;0.20;0.20;;;11.60;99.90;14.90;101879.00;;;;5024803;28;20186;-63
2023/04/07 17:46:18;;;;;;;0.30;0.30;;;11.70;99.90;15.30;101889.00;;;;5034111;28;20179;-63
2023/04/07 17:48:50;;;;;;;0.20;0.20;;;11.90;99.90;15.00;101895.00;;;;5031119;28;20277;-63
2023/04/07 17:51:28;;;;;;;0.20;0.20;;;12.10;99.90;14.30;101883.00;;;;5033391;28;20190;-62
2023/04/07 17:54:04;;;;;;;0.20;0.20;;;11.70;99.90;14.50;101876.00;;;;5034030;28;20260;-63
2023/04/07 17:56:48;;;;;;;0.47;0.47;;;11.70;99.90;14.90;101895.00;;;;5032113;28;20254;-63
2023/04/07 17:59:23;;;;;;;0.20;0.20;;;11.80;99.90;14.70;101894.00;;;;5043896;28;20183;-63
2023/04/07 18:02:11;;;;;;;0.20;0.20;;;11.80;99.90;14.20;101869.00;;;;5022759;28;20277;-62
2023/04/07 18:05:04;;;;;;;0.33;0.33;;;11.50;99.90;14.60;101899.00;;;;5033613;28;20191;-62
2023/04/07 18:07:30;;;;;;;0.30;0.30;;;11.60;99.90;14.40;101905.00;;;;5032248;28;20229;-62
2023/04/07 18:09:56;;;;;;;0.20;0.20;;;11.60;99.90;14.20;101895.00;;;;5015132;28;20191;-63
2023/04/07 18:12:25;;;;;;;0.20;0.20;;;11.50;99.90;14.60;101889.00;;;;5033236;28;20260;-63
2023/04/07 18:14:56;;;;;;;0.20;0.20;;;11.50;99.90;14.90;101907.00;;;;5033069;28;20221;-63
2023/04/07 18:17:30;;;;;;;0.20;0.20;;;11.70;99.90;14.00;101903.00;;;;5015530;28;20652;-63
2023/04/07 18:19:56;;;;;;;0.30;0.30;;;11.50;99.90;14.20;101901.00;;;;5032589;28;20209;-62
2023/04/07 18:22:43;;;;;;;0.20;0.20;;;11.50;99.90;14.50;101916.00;;;;5033049;28;20192;-62
2023/04/07 18:25:15;;;;;;;0.20;0.20;;;11.50;99.90;14.30;101908.00;;;;5032347;28;20236;-62